createdAt,value
2016-05-09T00:00:18.622Z,1007.51
2016-05-09T00:01:18.593Z,1007.48
2016-05-09T00:02:18.582Z,1007.5
2016-05-09T00:03:18.568Z,1007.52
2016-05-09T00:04:18.540Z,1007.48
2016-05-09T00:05:18.526Z,1007.46
2016-05-09T00:06:18.498Z,1007.47
2016-05-09T00:07:18.485Z,1007.49
2016-05-09T00:08:18.457Z,1007.52
2016-05-09T00:09:18.443Z,1007.5
2016-05-09T00:10:18.415Z,1007.46
2016-05-09T00:11:18.402Z,1007.49
2016-05-09T00:12:18.373Z,1007.47
2016-05-09T00:13:18.361Z,1007.45
2016-05-09T00:14:18.332Z,1007.45
2016-05-09T00:15:18.319Z,1007.48
2016-05-09T00:16:18.306Z,1007.48
2016-05-09T00:17:18.277Z,1007.45
2016-05-09T00:18:18.249Z,1007.48
2016-05-09T00:19:18.236Z,1007.46
2016-05-09T00:20:18.208Z,1007.46
2016-05-09T00:21:18.195Z,1007.44
2016-05-09T00:22:18.182Z,1007.45
2016-05-09T00:23:18.153Z,1007.49
2016-05-09T00:24:18.140Z,1007.48
2016-05-09T00:25:18.111Z,1007.45
2016-05-09T00:26:18.098Z,1007.46
2016-05-09T00:27:18.071Z,1007.48
2016-05-09T00:28:18.057Z,1007.47
2016-05-09T00:29:18.122Z,1007.44
2016-05-09T00:30:18.016Z,1007.47
2016-05-09T00:31:18.002Z,1007.52
2016-05-09T00:32:17.974Z,1007.47
2016-05-09T00:33:17.962Z,1007.49
2016-05-09T00:34:17.932Z,1007.44
2016-05-09T00:35:17.920Z,1007.46
2016-05-09T00:36:17.891Z,1007.46
2016-05-09T00:37:17.878Z,1007.47
2016-05-09T00:38:17.850Z,1007.44
2016-05-09T00:39:17.837Z,1007.47
2016-05-09T00:40:17.809Z,1007.46
2016-05-09T00:41:17.795Z,1007.42
2016-05-09T00:42:17.767Z,1007.43
2016-05-09T00:43:17.754Z,1007.43
2016-05-09T00:44:17.726Z,1007.44
2016-05-09T00:45:17.711Z,1007.47
2016-05-09T00:46:17.684Z,1007.44
2016-05-09T00:47:17.670Z,1007.44
2016-05-09T00:48:17.658Z,1007.48
2016-05-09T00:49:17.629Z,1007.47
2016-05-09T00:50:17.617Z,1007.44
2016-05-09T00:51:17.588Z,1007.46
2016-05-09T00:52:17.559Z,1007.45
2016-05-09T00:53:17.546Z,1007.44
2016-05-09T00:54:17.533Z,1007.46
2016-05-09T00:55:17.505Z,1007.48
2016-05-09T00:56:17.491Z,1007.49
2016-05-09T00:57:17.463Z,1007.46
2016-05-09T00:58:17.450Z,1007.46
2016-05-09T00:59:17.422Z,1007.48
2016-05-09T01:00:17.409Z,1007.48
2016-05-09T01:01:17.380Z,1007.47
2016-05-09T01:02:17.368Z,1007.46
2016-05-09T01:03:17.338Z,1007.48
2016-05-09T01:04:17.326Z,1007.44
2016-05-09T01:05:17.298Z,1007.46
2016-05-09T01:06:17.284Z,1007.44
2016-05-09T01:07:17.271Z,1007.48
2016-05-09T01:08:17.242Z,1007.47
2016-05-09T01:09:17.215Z,1007.45
2016-05-09T01:10:17.218Z,1007.43
2016-05-09T01:11:17.173Z,1007.45
2016-05-09T01:12:17.159Z,1007.43
2016-05-09T01:13:17.131Z,1007.42
2016-05-09T01:14:18.149Z,1007.44
2016-05-09T01:15:17.090Z,1007.47
2016-05-09T01:16:17.078Z,1007.46
2016-05-09T01:17:17.064Z,1007.46
2016-05-09T01:18:17.036Z,1007.47
2016-05-09T01:19:17.006Z,1007.45
2016-05-09T01:20:16.994Z,1007.45
2016-05-09T01:21:16.980Z,1007.45
2016-05-09T01:22:16.953Z,1007.52
2016-05-09T01:23:16.939Z,1007.49
2016-05-09T01:24:16.911Z,1007.46
2016-05-09T01:25:16.897Z,1007.52
2016-05-09T01:26:16.869Z,1007.5
2016-05-09T01:27:16.857Z,1007.49
2016-05-09T01:28:16.828Z,1007.5
2016-05-09T01:29:16.815Z,1007.53
2016-05-09T01:30:16.786Z,1007.51
2016-05-09T01:31:16.773Z,1007.52
2016-05-09T01:32:16.760Z,1007.51
2016-05-09T01:33:16.732Z,1007.54
2016-05-09T01:34:16.719Z,1007.51
2016-05-09T01:35:16.690Z,1007.5
2016-05-09T01:36:16.677Z,1007.53
2016-05-09T01:37:16.648Z,1007.48
2016-05-09T01:38:16.637Z,1007.51
2016-05-09T01:39:16.608Z,1007.48
2016-05-09T01:40:16.595Z,1007.48
2016-05-09T01:41:16.566Z,1007.46
2016-05-09T01:42:16.553Z,1007.47
2016-05-09T01:43:16.524Z,1007.5
2016-05-09T01:44:16.996Z,1007.46
2016-05-09T01:45:16.483Z,1007.48
2016-05-09T01:46:16.470Z,1007.45
2016-05-09T01:47:16.442Z,1007.46
2016-05-09T01:48:16.428Z,1007.48
2016-05-09T01:49:16.400Z,1007.47
2016-05-09T01:50:16.402Z,1007.45
2016-05-09T01:51:16.359Z,1007.44
2016-05-09T01:52:16.345Z,1007.48
2016-05-09T01:53:16.317Z,1007.46
2016-05-09T01:54:16.304Z,1007.46
2016-05-09T01:55:16.275Z,1007.49
2016-05-09T01:56:16.263Z,1007.5
2016-05-09T01:57:16.234Z,1007.49
2016-05-09T01:58:16.221Z,1007.49
2016-05-09T01:59:16.193Z,1007.49
2016-05-09T02:00:16.179Z,1007.48
2016-05-09T02:01:16.151Z,1007.49
2016-05-09T02:02:16.138Z,1007.49
2016-05-09T02:03:16.110Z,1007.5
2016-05-09T02:04:16.097Z,1007.51
2016-05-09T02:05:16.068Z,1007.5
2016-05-09T02:06:16.054Z,1007.51
2016-05-09T02:07:16.026Z,1007.49
2016-05-09T02:08:16.014Z,1007.49
2016-05-09T02:09:15.985Z,1007.49
2016-05-09T02:10:15.973Z,1007.53
2016-05-09T02:11:15.943Z,1007.52
2016-05-09T02:12:15.931Z,1007.54
2016-05-09T02:13:15.901Z,1007.54
2016-05-09T02:14:16.327Z,1007.56
2016-05-09T02:15:15.861Z,1007.53
2016-05-09T02:16:15.848Z,1007.56
2016-05-09T02:17:15.819Z,1007.56
2016-05-09T02:18:15.806Z,1007.55
2016-05-09T02:19:15.792Z,1007.6
2016-05-09T02:20:15.764Z,1007.59
2016-05-09T02:21:15.736Z,1007.53
2016-05-09T02:22:15.723Z,1007.52
2016-05-09T02:23:15.694Z,1007.55
2016-05-09T02:24:15.673Z,1007.5
2016-05-09T02:25:15.659Z,1007.53
2016-05-09T02:26:15.632Z,1007.54
2016-05-09T02:27:15.619Z,1007.52
2016-05-09T02:28:15.590Z,1007.51
2016-05-09T02:29:15.576Z,1007.54
2016-05-09T02:30:15.548Z,1007.53
2016-05-09T02:31:15.535Z,1007.5
2016-05-09T02:32:15.507Z,1007.54
2016-05-09T02:33:15.494Z,1007.49
2016-05-09T02:34:15.465Z,1007.54
2016-05-09T02:35:15.453Z,1007.54
2016-05-09T02:36:15.423Z,1007.53
2016-05-09T02:37:15.411Z,1007.56
2016-05-09T02:38:15.382Z,1007.55
2016-05-09T02:39:15.370Z,1007.53
2016-05-09T02:40:15.341Z,1007.51
2016-05-09T02:41:15.328Z,1007.51
2016-05-09T02:42:15.300Z,1007.54
2016-05-09T02:43:15.286Z,1007.52
2016-05-09T02:44:15.352Z,1007.53
2016-05-09T02:45:15.245Z,1007.53
2016-05-09T02:46:15.232Z,1007.55
2016-05-09T02:47:15.188Z,1007.49
2016-05-09T02:48:15.175Z,1007.51
2016-05-09T02:49:15.428Z,1007.52
2016-05-09T02:50:15.149Z,1007.53
2016-05-09T02:51:15.121Z,1007.54
2016-05-09T02:52:15.091Z,1007.5
2016-05-09T02:53:15.079Z,1007.53
2016-05-09T02:54:15.049Z,1007.52
2016-05-09T02:55:15.038Z,1007.57
2016-05-09T02:56:15.009Z,1007.52
2016-05-09T02:57:14.996Z,1007.54
2016-05-09T02:58:14.967Z,1007.53
2016-05-09T02:59:14.955Z,1007.55
2016-05-09T03:00:14.926Z,1007.54
2016-05-09T03:01:14.898Z,1007.52
2016-05-09T03:02:14.884Z,1007.53
2016-05-09T03:03:14.856Z,1007.52
2016-05-09T03:04:14.842Z,1007.57
2016-05-09T03:05:14.829Z,1007.54
2016-05-09T03:06:14.801Z,1007.58
2016-05-09T03:07:14.773Z,1007.57
2016-05-09T03:08:14.759Z,1007.58
2016-05-09T03:09:14.748Z,1007.6
2016-05-09T03:10:14.718Z,1007.56
2016-05-09T03:11:14.689Z,1007.56
2016-05-09T03:12:14.677Z,1007.59
2016-05-09T03:13:14.648Z,1007.58
2016-05-09T03:14:14.636Z,1007.52
2016-05-09T03:15:14.622Z,1007.54
2016-05-09T03:16:14.594Z,1007.56
2016-05-09T03:17:14.566Z,1007.56
2016-05-09T03:18:14.552Z,1007.57
2016-05-09T03:19:14.524Z,1007.54
2016-05-09T03:20:14.511Z,1007.63
2016-05-09T03:21:14.483Z,1007.6
2016-05-09T03:22:14.469Z,1007.59
2016-05-09T03:23:14.441Z,1007.62
2016-05-09T03:24:14.425Z,1007.59
2016-05-09T03:25:14.396Z,1007.62
2016-05-09T03:26:14.383Z,1007.61
2016-05-09T03:27:14.355Z,1007.61
2016-05-09T03:28:14.327Z,1007.64
2016-05-09T03:29:14.314Z,1007.64
2016-05-09T03:30:14.301Z,1007.6
2016-05-09T03:31:14.272Z,1007.61
2016-05-09T03:32:14.243Z,1007.61
2016-05-09T03:33:14.231Z,1007.63
2016-05-09T03:34:14.201Z,1007.6
2016-05-09T03:35:14.190Z,1007.61
2016-05-09T03:36:14.176Z,1007.61
2016-05-09T03:37:14.148Z,1007.65
2016-05-09T03:38:14.119Z,1007.66
2016-05-09T03:39:14.107Z,1007.65
2016-05-09T03:40:14.078Z,1007.61
2016-05-09T03:41:14.065Z,1007.64
2016-05-09T03:42:14.036Z,1007.61
2016-05-09T03:43:14.023Z,1007.62
2016-05-09T03:44:13.994Z,1007.65
2016-05-09T03:45:13.967Z,1007.64
2016-05-09T03:46:13.953Z,1007.59
2016-05-09T03:47:13.940Z,1007.59
2016-05-09T03:48:13.911Z,1007.6
2016-05-09T03:49:13.899Z,1007.62
2016-05-09T03:50:13.870Z,1007.59
2016-05-09T03:51:13.841Z,1007.59
2016-05-09T03:52:13.828Z,1007.62
2016-05-09T03:53:13.800Z,1007.63
2016-05-09T03:54:13.787Z,1007.64
2016-05-09T03:55:13.758Z,1007.6
2016-05-09T03:56:13.730Z,1007.6
2016-05-09T03:57:13.717Z,1007.64
2016-05-09T03:58:13.704Z,1007.62
2016-05-09T03:59:13.676Z,1007.61
2016-05-09T04:00:13.646Z,1007.62
2016-05-09T04:01:13.635Z,1007.64
2016-05-09T04:02:13.605Z,1007.63
2016-05-09T04:03:13.593Z,1007.7
2016-05-09T04:04:13.564Z,1007.65
2016-05-09T04:05:13.551Z,1007.69
2016-05-09T04:06:13.522Z,1007.7
2016-05-09T04:07:13.494Z,1007.7
2016-05-09T04:08:13.481Z,1007.66
2016-05-09T04:09:13.468Z,1007.66
2016-05-09T04:10:13.439Z,1007.64
2016-05-09T04:11:13.426Z,1007.66
2016-05-09T04:12:13.397Z,1007.65
2016-05-09T04:13:13.370Z,1007.61
2016-05-09T04:14:13.779Z,1007.68
2016-05-09T04:15:13.344Z,1007.62
2016-05-09T04:16:13.314Z,1007.63
2016-05-09T04:17:13.286Z,1007.64
2016-05-09T04:18:13.273Z,1007.63
2016-05-09T04:19:13.261Z,1007.66
2016-05-09T04:20:13.233Z,1007.65
2016-05-09T04:21:13.203Z,1007.65
2016-05-09T04:22:13.190Z,1007.66
2016-05-09T04:23:13.161Z,1007.68
2016-05-09T04:24:13.149Z,1007.7
2016-05-09T04:25:13.121Z,1007.66
2016-05-09T04:26:13.108Z,1007.73
2016-05-09T04:27:13.079Z,1007.7
2016-05-09T04:28:13.050Z,1007.73
2016-05-09T04:29:13.038Z,1007.7
2016-05-09T04:30:13.024Z,1007.66
2016-05-09T04:31:12.996Z,1007.7
2016-05-09T04:32:12.983Z,1007.7
2016-05-09T04:33:12.954Z,1007.72
2016-05-09T04:34:12.926Z,1007.73
2016-05-09T04:35:12.913Z,1007.77
2016-05-09T04:36:12.900Z,1007.78
2016-05-09T04:37:12.871Z,1007.74
2016-05-09T04:38:12.843Z,1007.79
2016-05-09T04:39:12.830Z,1007.77
2016-05-09T04:40:12.817Z,1007.77
2016-05-09T04:41:12.789Z,1007.75
2016-05-09T04:42:12.759Z,1007.78
2016-05-09T04:43:12.747Z,1007.77
2016-05-09T04:44:13.250Z,1007.74
2016-05-09T04:45:12.706Z,1007.78
2016-05-09T04:46:12.693Z,1007.79
2016-05-09T04:47:12.664Z,1007.8
2016-05-09T04:48:12.650Z,1007.85
2016-05-09T04:49:12.622Z,1007.81
2016-05-09T04:50:12.595Z,1007.85
2016-05-09T04:51:12.580Z,1007.8
2016-05-09T04:52:12.569Z,1007.81
2016-05-09T04:53:12.539Z,1007.85
2016-05-09T04:54:12.527Z,1007.82
2016-05-09T04:55:12.497Z,1007.84
2016-05-09T04:56:12.486Z,1007.83
2016-05-09T04:57:12.457Z,1007.8
2016-05-09T04:58:12.444Z,1007.8
2016-05-09T04:59:12.665Z,1007.81
2016-05-09T05:00:12.402Z,1007.79
2016-05-09T05:01:12.388Z,1007.86
2016-05-09T05:02:12.361Z,1007.86
2016-05-09T05:03:12.348Z,1007.86
2016-05-09T05:04:12.319Z,1007.87
2016-05-09T05:05:12.306Z,1007.88
2016-05-09T05:06:12.277Z,1007.87
2016-05-09T05:07:12.265Z,1007.84
2016-05-09T05:08:12.252Z,1007.9
2016-05-09T05:09:12.223Z,1007.85
2016-05-09T05:10:12.210Z,1007.88
2016-05-09T05:11:12.182Z,1007.85
2016-05-09T05:12:12.168Z,1007.85
2016-05-09T05:13:12.140Z,1007.86
2016-05-09T05:14:12.440Z,1007.88
2016-05-09T05:15:12.098Z,1007.86
2016-05-09T05:16:12.086Z,1007.84
2016-05-09T05:17:12.056Z,1007.81
2016-05-09T05:18:12.045Z,1007.82
2016-05-09T05:19:12.016Z,1007.82
2016-05-09T05:20:12.003Z,1007.8
2016-05-09T05:21:11.989Z,1007.81
2016-05-09T05:22:11.961Z,1007.82
2016-05-09T05:23:11.947Z,1007.8
2016-05-09T05:24:11.920Z,1007.82
2016-05-09T05:25:11.892Z,1007.8
2016-05-09T05:26:11.878Z,1007.8
2016-05-09T05:27:11.880Z,1007.82
2016-05-09T05:28:11.836Z,1007.8
2016-05-09T05:29:11.824Z,1007.76
2016-05-09T05:30:11.811Z,1007.76
2016-05-09T05:31:11.783Z,1007.82
2016-05-09T05:32:11.754Z,1007.79
2016-05-09T05:33:11.740Z,1007.79
2016-05-09T05:34:11.712Z,1007.78
2016-05-09T05:35:11.699Z,1007.77
2016-05-09T05:36:11.671Z,1007.79
2016-05-09T05:37:11.658Z,1007.75
2016-05-09T05:38:11.645Z,1007.78
2016-05-09T05:39:11.616Z,1007.76
2016-05-09T05:40:11.603Z,1007.75
2016-05-09T05:41:11.575Z,1007.76
2016-05-09T05:42:11.562Z,1007.77
2016-05-09T05:43:11.534Z,1007.74
2016-05-09T05:44:12.286Z,1007.78
2016-05-09T05:45:11.492Z,1007.74
2016-05-09T05:46:11.479Z,1007.74
2016-05-09T05:47:11.451Z,1007.74
2016-05-09T05:48:11.437Z,1007.72
2016-05-09T05:49:11.409Z,1007.73
2016-05-09T05:50:11.395Z,1007.77
2016-05-09T05:51:11.367Z,1007.76
2016-05-09T05:52:11.354Z,1007.79
2016-05-09T05:53:11.341Z,1007.79
2016-05-09T05:54:11.329Z,1007.8
2016-05-09T05:55:11.300Z,1007.74
2016-05-09T05:56:11.272Z,1007.75
2016-05-09T05:57:11.258Z,1007.77
2016-05-09T05:58:11.246Z,1007.81
2016-05-09T05:59:12.654Z,1007.82
2016-05-09T06:00:11.204Z,1007.78
2016-05-09T06:01:11.218Z,1007.8
2016-05-09T06:02:11.250Z,1007.81
2016-05-09T06:03:11.265Z,1007.78
2016-05-09T06:04:11.296Z,1007.85
2016-05-09T06:05:11.327Z,1007.8
2016-05-09T06:06:11.314Z,1007.8
2016-05-09T06:07:11.317Z,1007.85
2016-05-09T06:08:11.303Z,1007.8
2016-05-09T06:09:11.307Z,1007.83
2016-05-09T06:10:11.310Z,1007.8
2016-05-09T06:11:11.287Z,1007.83
2016-05-09T06:12:11.279Z,1007.86
2016-05-09T06:13:11.257Z,1007.85
2016-05-09T06:14:11.239Z,1007.79
2016-05-09T06:15:11.232Z,1007.88
2016-05-09T06:16:11.221Z,1007.86
2016-05-09T06:17:11.194Z,1007.82
2016-05-09T06:18:11.183Z,1007.82
2016-05-09T06:19:11.173Z,1007.86
2016-05-09T06:20:11.145Z,1007.84
2016-05-09T06:21:11.133Z,1007.83
2016-05-09T06:22:11.106Z,1007.84
2016-05-09T06:23:11.093Z,1007.87
2016-05-09T06:24:11.080Z,1007.93
2016-05-09T06:25:11.053Z,1007.86
2016-05-09T06:26:11.040Z,1007.85
2016-05-09T06:27:11.012Z,1007.88
2016-05-09T06:28:11.000Z,1007.91
2016-05-09T06:29:10.986Z,1007.91
2016-05-09T06:30:12.395Z,1007.93
2016-05-09T06:31:11.758Z,1007.91
2016-05-09T06:32:11.791Z,1007.9
2016-05-09T06:33:11.246Z,1007.93
2016-05-09T06:34:11.843Z,1007.94
2016-05-09T06:35:11.221Z,1007.95
2016-05-09T06:36:10.849Z,1007.89
2016-05-09T06:37:10.836Z,1007.91
2016-05-09T06:38:10.807Z,1007.94
2016-05-09T06:39:10.794Z,1007.91
2016-05-09T06:40:10.782Z,1007.98
2016-05-09T06:41:12.159Z,1007.97
2016-05-09T06:42:11.974Z,1007.97
2016-05-09T06:43:11.993Z,1007.94
2016-05-09T06:44:11.948Z,1007.99
2016-05-09T06:45:11.936Z,1007.95
2016-05-09T06:46:12.094Z,1007.93
2016-05-09T06:47:11.926Z,1007.97
2016-05-09T06:48:12.021Z,1007.95
2016-05-09T06:49:11.977Z,1008.08
2016-05-09T06:50:12.043Z,1008.01
2016-05-09T06:51:11.889Z,1008.03
2016-05-09T06:52:11.845Z,1008.03
2016-05-09T06:53:11.128Z,1008.01
2016-05-09T06:54:11.912Z,1008.06
2016-05-09T06:55:12.118Z,1008.04
2016-05-09T06:56:10.496Z,1008.04
2016-05-09T06:57:10.484Z,1007.99
2016-05-09T06:58:10.470Z,1008.01
2016-05-09T06:59:10.458Z,1007.99
2016-05-09T07:00:10.445Z,1008
2016-05-09T07:01:10.431Z,1008.01
2016-05-09T07:02:10.419Z,1008.11
2016-05-09T07:03:10.405Z,1008.01
2016-05-09T07:04:10.392Z,1008.12
2016-05-09T07:05:10.380Z,1007.99
2016-05-09T07:06:10.366Z,1008
2016-05-09T07:07:10.370Z,1008.08
2016-05-09T07:08:10.357Z,1007.93
2016-05-09T07:09:10.344Z,1008.04
2016-05-09T07:10:10.330Z,1008.07
2016-05-09T07:11:10.318Z,1008.04
2016-05-09T07:12:10.305Z,1008.04
2016-05-09T07:13:10.308Z,1008.04
2016-05-09T07:14:10.467Z,1008.13
2016-05-09T07:15:10.282Z,1008.02
2016-05-09T07:16:10.269Z,1008
2016-05-09T07:17:11.115Z,1008.1
2016-05-09T07:18:10.259Z,1008.12
2016-05-09T07:19:10.246Z,1008.07
2016-05-09T07:20:10.232Z,1008.15
2016-05-09T07:21:10.220Z,1008.09
2016-05-09T07:22:10.223Z,1008.06
2016-05-09T07:23:10.209Z,1008.13
2016-05-09T07:24:10.196Z,1008.02
2016-05-09T07:25:10.199Z,1008.1
2016-05-09T07:26:10.187Z,1008.06
2016-05-09T07:27:10.173Z,1008.12
2016-05-09T07:28:10.176Z,1008.06
2016-05-09T07:29:10.164Z,1008.04
2016-05-09T07:30:10.167Z,1008.05
2016-05-09T07:31:10.153Z,1008.09
2016-05-09T07:32:10.139Z,1008.14
2016-05-09T07:33:10.128Z,1008.02
2016-05-09T07:34:10.130Z,1008.06
2016-05-09T07:35:10.117Z,1008.02
2016-05-09T07:36:10.120Z,1008.09
2016-05-09T07:37:10.106Z,1008.06
2016-05-09T07:38:10.094Z,1007.98
2016-05-09T07:39:10.097Z,1008.06
2016-05-09T07:40:10.083Z,1008.05
2016-05-09T07:41:10.071Z,1008.03
2016-05-09T07:42:10.105Z,1008
2016-05-09T07:43:10.076Z,1008.05
2016-05-09T07:44:10.079Z,1008.02
2016-05-09T07:45:10.050Z,1008.15
2016-05-09T07:46:10.052Z,1008.06
2016-05-09T07:47:10.040Z,1008
2016-05-09T07:48:10.027Z,1008.11
2016-05-09T07:49:10.029Z,1008.02
2016-05-09T07:50:10.017Z,1008.05
2016-05-09T07:51:10.009Z,1008.01
2016-05-09T07:52:10.012Z,1008.02
2016-05-09T07:53:10.015Z,1008
2016-05-09T07:54:10.001Z,1007.99
2016-05-09T07:55:09.995Z,1007.94
2016-05-09T07:56:09.985Z,1007.94
2016-05-09T07:57:09.972Z,1007.94
2016-05-09T07:58:09.974Z,1007.98
2016-05-09T07:59:09.962Z,1007.97
2016-05-09T08:00:09.964Z,1007.9
2016-05-09T08:01:09.951Z,1007.95
2016-05-09T08:02:09.954Z,1007.94
2016-05-09T08:03:09.941Z,1007.97
2016-05-09T08:04:09.943Z,1007.88
2016-05-09T08:05:09.931Z,1007.97
2016-05-09T08:06:10.168Z,1007.86
2016-05-09T08:07:09.920Z,1007.8
2016-05-09T08:08:13.189Z,1007.91
2016-05-09T08:09:17.504Z,1007.9
2016-05-09T08:10:14.726Z,1007.87
2016-05-09T08:11:11.244Z,1007.9
2016-05-09T08:12:18.481Z,1007.87
2016-05-09T08:13:09.890Z,1007.93
2016-05-09T08:14:10.392Z,1007.87
2016-05-09T08:15:09.879Z,1007.88
2016-05-09T08:16:09.882Z,1007.83
2016-05-09T08:17:09.870Z,1007.88
2016-05-09T08:18:09.873Z,1007.89
2016-05-09T08:19:09.875Z,1007.9
2016-05-09T08:20:09.861Z,1007.87
2016-05-09T08:21:09.865Z,1007.96
2016-05-09T08:22:09.852Z,1007.92
2016-05-09T08:23:09.854Z,1007.85
2016-05-09T08:24:09.873Z,1007.85
2016-05-09T08:25:09.845Z,1007.85
2016-05-09T08:26:09.847Z,1007.87
2016-05-09T08:27:09.834Z,1007.86
2016-05-09T08:28:09.821Z,1007.81
2016-05-09T08:29:09.824Z,1007.88
2016-05-09T08:30:09.811Z,1007.81
2016-05-09T08:31:09.813Z,1007.81
2016-05-09T08:32:09.816Z,1007.74
2016-05-09T08:33:09.803Z,1007.83
2016-05-09T08:34:09.805Z,1007.78
2016-05-09T08:35:09.793Z,1007.78
2016-05-09T08:36:09.796Z,1007.84
2016-05-09T08:37:09.783Z,1007.71
2016-05-09T08:38:09.785Z,1007.76
2016-05-09T08:39:09.772Z,1007.68
2016-05-09T08:40:09.775Z,1007.75
2016-05-09T08:41:09.779Z,1007.69
2016-05-09T08:42:09.765Z,1007.7
2016-05-09T08:43:09.752Z,1007.66
2016-05-09T08:44:09.786Z,1007.73
2016-05-09T08:45:09.757Z,1007.75
2016-05-09T08:46:09.745Z,1007.67
2016-05-09T08:47:09.747Z,1007.64
2016-05-09T08:48:09.734Z,1007.6
2016-05-09T08:49:09.737Z,1007.55
2016-05-09T08:50:09.723Z,1007.62
2016-05-09T08:51:09.726Z,1007.6
2016-05-09T08:52:09.714Z,1007.54
2016-05-09T08:53:09.701Z,1007.59
2016-05-09T08:54:09.719Z,1007.5
2016-05-09T08:55:09.691Z,1007.49
2016-05-09T08:56:09.694Z,1007.53
2016-05-09T08:57:09.664Z,1007.55
2016-05-09T08:58:09.667Z,1007.5
2016-05-09T08:59:09.780Z,1007.51
2016-05-09T09:00:09.641Z,1007.58
2016-05-09T09:01:09.628Z,1007.56
2016-05-09T09:02:09.631Z,1007.49
2016-05-09T09:03:09.618Z,1007.53
2016-05-09T09:04:09.605Z,1007.55
2016-05-09T09:05:09.593Z,1007.51
2016-05-09T09:06:09.579Z,1007.56
2016-05-09T09:07:09.566Z,1007.49
2016-05-09T09:08:09.553Z,1007.5
2016-05-09T09:09:09.557Z,1007.54
2016-05-09T09:10:09.527Z,1007.64
2016-05-09T09:11:09.529Z,1007.57
2016-05-09T09:12:09.501Z,1007.63
2016-05-09T09:13:09.490Z,1007.53
2016-05-09T09:14:09.476Z,1007.47
2016-05-09T09:15:09.463Z,1007.58
2016-05-09T09:16:09.451Z,1007.59
2016-05-09T09:17:09.437Z,1007.58
2016-05-09T09:18:09.440Z,1007.53
2016-05-09T09:19:09.412Z,1007.59
2016-05-09T09:20:09.398Z,1007.68
2016-05-09T09:21:09.386Z,1007.55
2016-05-09T09:22:09.372Z,1007.54
2016-05-09T09:23:09.359Z,1007.55
2016-05-09T09:24:09.347Z,1007.6
2016-05-09T09:25:09.334Z,1007.58
2016-05-09T09:26:09.320Z,1007.56
2016-05-09T09:27:09.292Z,1007.49
2016-05-09T09:28:09.280Z,1007.49
2016-05-09T09:29:09.266Z,1007.49
2016-05-09T09:30:09.253Z,1007.5
2016-05-09T09:31:09.240Z,1007.5
2016-05-09T09:32:09.244Z,1007.53
2016-05-09T09:33:09.214Z,1007.54
2016-05-09T09:34:09.202Z,1007.55
2016-05-09T09:35:09.189Z,1007.48
2016-05-09T09:36:09.176Z,1007.43
2016-05-09T09:37:09.147Z,1007.44
2016-05-09T09:38:09.135Z,1007.47
2016-05-09T09:39:09.121Z,1007.47
2016-05-09T09:40:09.108Z,1007.44
2016-05-09T09:41:09.096Z,1007.42
2016-05-09T09:42:09.082Z,1007.43
2016-05-09T09:43:09.070Z,1007.38
2016-05-09T09:44:09.040Z,1007.4
2016-05-09T09:45:09.029Z,1007.43
2016-05-09T09:46:09.015Z,1007.33
2016-05-09T09:47:09.001Z,1007.4
2016-05-09T09:48:08.990Z,1007.38
2016-05-09T09:49:08.976Z,1007.25
2016-05-09T09:50:08.964Z,1007.25
2016-05-09T09:51:08.950Z,1007.4
2016-05-09T09:52:08.922Z,1007.43
2016-05-09T09:53:08.909Z,1007.32
2016-05-09T09:54:08.896Z,1007.37
2016-05-09T09:55:08.884Z,1007.38
2016-05-09T09:56:08.870Z,1007.29
2016-05-09T09:57:08.858Z,1007.3
2016-05-09T09:58:08.844Z,1007.36
2016-05-09T09:59:08.831Z,1007.07
2016-05-09T10:00:08.802Z,1007.36
2016-05-09T10:01:08.805Z,1007.33
2016-05-09T10:02:08.778Z,1007.32
2016-05-09T10:03:08.780Z,1007.25
2016-05-09T10:04:08.752Z,1007.38
2016-05-09T10:05:08.739Z,1007.24
2016-05-09T10:06:08.725Z,1007.2
2016-05-09T10:07:08.712Z,1007.32
2016-05-09T10:08:08.699Z,1007.22
2016-05-09T10:09:08.671Z,1007.18
2016-05-09T10:10:08.657Z,1007.15
2016-05-09T10:11:08.645Z,1007.16
2016-05-09T10:12:08.632Z,1007.31
2016-05-09T10:13:08.619Z,1007.24
2016-05-09T10:14:08.607Z,1007.16
2016-05-09T10:15:08.593Z,1007.18
2016-05-09T10:16:08.565Z,1007.2
2016-05-09T10:17:08.552Z,1007.22
2016-05-09T10:18:08.539Z,1007.18
2016-05-09T10:19:08.526Z,1007.19
2016-05-09T10:20:08.513Z,1007.17
2016-05-09T10:21:08.500Z,1007
2016-05-09T10:22:08.487Z,1007.12
2016-05-09T10:23:08.459Z,1007.16
2016-05-09T10:24:08.445Z,1007.13
2016-05-09T10:25:08.433Z,1007.19
2016-05-09T10:26:08.420Z,1007.13
2016-05-09T10:27:08.406Z,1007.19
2016-05-09T10:28:08.394Z,1007.21
2016-05-09T10:29:08.381Z,1007.14
2016-05-09T10:30:08.368Z,1007.28
2016-05-09T10:31:08.355Z,1007.32
2016-05-09T10:32:08.342Z,1007.17
2016-05-09T10:33:08.313Z,1007.2
2016-05-09T10:34:08.301Z,1007.15
2016-05-09T10:35:08.288Z,1007.15
2016-05-09T10:36:08.275Z,1007.15
2016-05-09T10:37:08.261Z,1007.09
2016-05-09T10:38:08.249Z,1007.1
2016-05-09T10:39:08.251Z,1007.06
2016-05-09T10:40:08.223Z,1007.1
2016-05-09T10:41:08.194Z,1007.07
2016-05-09T10:42:08.182Z,1007.14
2016-05-09T10:43:08.169Z,1007.21
2016-05-09T10:44:08.171Z,1007.17
2016-05-09T10:45:08.143Z,1007.14
2016-05-09T10:46:08.129Z,1007.26
2016-05-09T10:47:08.117Z,1007.16
2016-05-09T10:48:08.104Z,1007.3
2016-05-09T10:49:08.091Z,1007.2
2016-05-09T10:50:08.078Z,1007.24
2016-05-09T10:51:08.049Z,1007.17
2016-05-09T10:52:08.036Z,1007.22
2016-05-09T10:53:08.023Z,1007.2
2016-05-09T10:54:08.011Z,1007.21
2016-05-09T10:55:08.014Z,1007.23
2016-05-09T10:56:07.985Z,1007.15
2016-05-09T10:57:07.972Z,1007.13
2016-05-09T10:58:07.959Z,1007.15
2016-05-09T10:59:07.930Z,1007.16
2016-05-09T11:00:07.933Z,1007.16
2016-05-09T11:01:07.905Z,1007.16
2016-05-09T11:02:07.891Z,1007.02
2016-05-09T11:03:07.878Z,1007.14
2016-05-09T11:04:07.881Z,1007.15
2016-05-09T11:05:07.852Z,1007.25
2016-05-09T11:06:07.839Z,1007.09
2016-05-09T11:07:07.827Z,1007.1
2016-05-09T11:08:07.814Z,1007.1
2016-05-09T11:09:07.801Z,1007.05
2016-05-09T11:10:07.788Z,1007.13
2016-05-09T11:11:07.759Z,1007.1
2016-05-09T11:12:07.746Z,1007.11
2016-05-09T11:13:07.734Z,1007.15
2016-05-09T11:14:07.768Z,1007.19
2016-05-09T11:15:07.708Z,1007.18
2016-05-09T11:16:07.710Z,1007.25
2016-05-09T11:17:07.681Z,1007.2
2016-05-09T11:18:07.668Z,1007.2
2016-05-09T11:19:07.656Z,1007.19
2016-05-09T11:20:07.643Z,1007.28
2016-05-09T11:21:07.614Z,1007.2
2016-05-09T11:22:07.601Z,1007.25
2016-05-09T11:23:07.589Z,1007.21
2016-05-09T11:24:07.576Z,1007.26
2016-05-09T11:25:07.563Z,1007.21
2016-05-09T11:26:07.550Z,1007.17
2016-05-09T11:27:07.537Z,1007.17
2016-05-09T11:28:07.524Z,1007.22
2016-05-09T11:29:07.511Z,1007.21
2016-05-09T11:30:07.482Z,1007.17
2016-05-09T11:31:07.470Z,1007.15
2016-05-09T11:32:07.456Z,1007.16
2016-05-09T11:33:07.444Z,1007.17
2016-05-09T11:34:07.430Z,1007.1
2016-05-09T11:35:07.417Z,1007.11
2016-05-09T11:36:07.405Z,1007.12
2016-05-09T11:37:07.392Z,1007.13
2016-05-09T11:38:07.380Z,1007.16
2016-05-09T11:39:07.350Z,1007.22
2016-05-09T11:40:07.353Z,1007.18
2016-05-09T11:41:07.325Z,1007.15
2016-05-09T11:42:07.311Z,1007.14
2016-05-09T11:43:07.299Z,1007.13
2016-05-09T11:44:07.380Z,1007.14
2016-05-09T11:45:07.273Z,1007.2
2016-05-09T11:46:07.260Z,1006.98
2016-05-09T11:47:07.231Z,1007.15
2016-05-09T11:48:07.235Z,1007.19
2016-05-09T11:49:07.205Z,1007.17
2016-05-09T11:50:07.207Z,1007.06
2016-05-09T11:51:07.195Z,1007.06
2016-05-09T11:52:07.167Z,1007.07
2016-05-09T11:53:07.154Z,1007.08
2016-05-09T11:54:07.141Z,1007.1
2016-05-09T11:55:07.143Z,1006.98
2016-05-09T11:56:07.114Z,1007
2016-05-09T11:57:07.101Z,1007.04
2016-05-09T11:58:07.090Z,1006.96
2016-05-09T11:59:07.076Z,1006.97
2016-05-09T12:00:07.047Z,1006.99
2016-05-09T12:01:07.034Z,1007.13
2016-05-09T12:02:07.022Z,1006.98
2016-05-09T12:03:07.009Z,1006.93
2016-05-09T12:04:06.996Z,1006.97
2016-05-09T12:05:06.983Z,1007
2016-05-09T12:06:06.969Z,1007.02
2016-05-09T12:07:06.957Z,1006.95
2016-05-09T12:08:06.929Z,1006.89
2016-05-09T12:09:06.931Z,1007